createdAt,value
2023-02-06T00:02:26.869Z,1.69
2023-02-06T00:05:28.750Z,1.70
2023-02-06T00:08:30.476Z,1.61
2023-02-06T00:11:32.344Z,1.53
2023-02-06T00:14:34.253Z,1.46
2023-02-06T00:17:37.049Z,1.47
2023-02-06T00:20:38.983Z,1.51
2023-02-06T00:23:41.128Z,1.50
2023-02-06T00:26:43.064Z,1.50
2023-02-06T00:29:44.862Z,1.41
2023-02-06T00:32:46.612Z,1.39
2023-02-06T00:35:48.418Z,1.36
2023-02-06T00:38:50.286Z,1.39
2023-02-06T00:41:51.948Z,1.44
2023-02-06T00:44:53.685Z,1.57
2023-02-06T00:47:55.284Z,1.62
2023-02-06T00:50:57.085Z,1.57
2023-02-06T00:53:58.734Z,1.48
2023-02-06T00:57:00.410Z,1.48
2023-02-06T01:00:04.217Z,1.56
2023-02-06T01:03:05.918Z,1.55
2023-02-06T01:06:07.739Z,1.46
2023-02-06T01:09:09.368Z,1.56
2023-02-06T01:12:11.003Z,1.51
2023-02-06T01:15:13.949Z,1.51
2023-02-06T01:18:15.745Z,1.43
2023-02-06T01:21:20.798Z,1.43
2023-02-06T01:24:22.741Z,1.53
2023-02-06T01:27:24.523Z,1.54
2023-02-06T01:30:26.322Z,1.59
2023-02-06T01:33:28.084Z,1.48
2023-02-06T01:36:29.939Z,1.48
2023-02-06T01:39:31.766Z,1.53
2023-02-06T01:42:40.004Z,1.51
2023-02-06T01:45:44.090Z,1.62
2023-02-06T01:48:53.674Z,1.48
2023-02-06T01:52:31.157Z,1.44
2023-02-06T01:55:35.449Z,1.62
2023-02-06T01:58:44.558Z,1.58
2023-02-06T02:01:46.400Z,1.62
2023-02-06T02:04:48.488Z,1.49
2023-02-06T02:08:06.270Z,1.45
2023-02-06T02:11:12.274Z,1.42
2023-02-06T02:14:16.505Z,1.47
2023-02-06T02:17:35.007Z,1.52
2023-02-06T02:21:11.280Z,1.54
2023-02-06T02:24:15.459Z,1.47
2023-02-06T02:27:35.081Z,1.54
2023-02-06T02:31:08.445Z,1.49
2023-02-06T02:34:49.273Z,1.31
2023-02-06T02:38:26.234Z,1.34
2023-02-06T02:41:55.665Z,1.32
2023-02-06T02:45:06.331Z,1.25
2023-02-06T02:48:29.841Z,1.25
2023-02-06T02:51:33.890Z,1.16
2023-02-06T02:54:35.876Z,1.10
2023-02-06T02:57:37.855Z,1.04
2023-02-06T03:01:08.106Z,1.02
2023-02-06T03:04:23.075Z,0.89
2023-02-06T03:07:30.678Z,0.91
2023-02-06T03:10:58.603Z,0.92
2023-02-06T03:14:15.620Z,0.96
2023-02-06T03:17:24.674Z,0.95
2023-02-06T03:20:27.941Z,0.79
2023-02-06T03:23:33.204Z,0.73
2023-02-06T03:26:37.230Z,0.66
2023-02-06T03:29:42.684Z,0.55
2023-02-06T03:32:50.196Z,0.51
2023-02-06T03:35:52.558Z,0.40
2023-02-06T03:38:54.698Z,0.51
2023-02-06T03:41:59.738Z,0.53
2023-02-06T03:45:07.770Z,0.54
2023-02-06T03:48:19.094Z,0.48
2023-02-06T03:51:49.659Z,0.43
2023-02-06T03:55:02.382Z,0.37
2023-02-06T03:58:12.508Z,0.28
2023-02-06T04:01:14.751Z,0.23
2023-02-06T04:04:25.017Z,0.30
2023-02-06T04:07:29.829Z,0.28
2023-02-06T04:10:31.666Z,0.21
2023-02-06T04:13:33.462Z,0.19
2023-02-06T04:16:35.254Z,0.18
2023-02-06T04:19:37.226Z,0.15
2023-02-06T04:22:40.035Z,0.14
2023-02-06T04:25:41.802Z,0.13
2023-02-06T04:28:43.546Z,0.15
2023-02-06T04:31:45.219Z,0.20
2023-02-06T04:34:46.845Z,0.23
2023-02-06T04:37:48.560Z,0.12
2023-02-06T04:40:50.304Z,0.10
2023-02-06T04:43:52.130Z,0.09
2023-02-06T04:46:54.062Z,0.07
2023-02-06T04:49:55.759Z,0.04
2023-02-06T04:52:58.317Z,0.04
2023-02-06T04:56:11.903Z,0.00
2023-02-06T04:59:14.057Z,-0.08
2023-02-06T05:02:15.759Z,-0.17
2023-02-06T05:05:17.565Z,-0.18
2023-02-06T05:08:19.772Z,-0.27
2023-02-06T05:11:21.645Z,-0.35
2023-02-06T05:14:23.357Z,-0.27
2023-02-06T05:17:25.116Z,-0.31
2023-02-06T05:20:26.934Z,-0.38
2023-02-06T05:23:28.565Z,-0.38
2023-02-06T05:26:30.287Z,-0.37
2023-02-06T05:29:31.868Z,-0.48
2023-02-06T05:32:33.539Z,-0.52
2023-02-06T05:35:35.621Z,-0.54
2023-02-06T05:38:37.409Z,-0.54
2023-02-06T05:41:38.876Z,-0.59
2023-02-06T05:44:40.843Z,-0.59
2023-02-06T05:47:42.750Z,-0.63
2023-02-06T05:50:45.086Z,-0.58
2023-02-06T05:53:50.211Z,-0.68
2023-02-06T05:56:51.884Z,-0.66
2023-02-06T05:59:53.676Z,-0.63
2023-02-06T06:02:55.434Z,-0.60
2023-02-06T06:05:57.133Z,-0.64
2023-02-06T06:09:01.327Z,-0.74
2023-02-06T06:12:03.177Z,-0.69
2023-02-06T06:15:05.439Z,-0.70
2023-02-06T06:18:07.412Z,-0.74
2023-02-06T06:21:10.692Z,-0.74
2023-02-06T06:24:12.480Z,-0.66
2023-02-06T06:27:14.273Z,-0.73
2023-02-06T06:30:16.120Z,-0.72
2023-02-06T06:33:17.836Z,-0.71
2023-02-06T06:36:19.993Z,-0.72
2023-02-06T06:39:21.916Z,-0.67
2023-02-06T06:42:23.565Z,-0.60
2023-02-06T06:45:26.427Z,-0.57
2023-02-06T06:48:28.805Z,-0.54
2023-02-06T06:51:30.647Z,-0.49
2023-02-06T06:54:32.527Z,-0.40
2023-02-06T06:57:34.300Z,-0.40
2023-02-06T07:00:38.206Z,-0.32
2023-02-06T07:03:44.198Z,-0.29
2023-02-06T07:06:46.095Z,-0.22
2023-02-06T07:09:47.952Z,-0.17
2023-02-06T07:12:49.854Z,-0.16
2023-02-06T07:15:51.620Z,-0.13
2023-02-06T07:18:53.209Z,-0.11
2023-02-06T07:21:54.791Z,-0.06
2023-02-06T07:24:56.730Z,-0.03
2023-02-06T07:27:59.100Z,-0.01
2023-02-06T07:31:08.139Z,0.10
2023-02-06T07:34:10.046Z,0.09
2023-02-06T07:37:11.999Z,0.17
2023-02-06T07:40:13.692Z,0.23
2023-02-06T07:43:15.575Z,0.24
2023-02-06T07:46:17.358Z,0.26
2023-02-06T07:49:19.205Z,0.28
2023-02-06T07:52:22.351Z,0.33
2023-02-06T07:55:24.250Z,0.36
2023-02-06T07:58:26.367Z,0.40
2023-02-06T08:01:28.705Z,0.36
2023-02-06T08:04:35.281Z,0.43
2023-02-06T08:07:37.080Z,0.52
2023-02-06T08:10:39.888Z,0.52
2023-02-06T08:13:42.878Z,0.54
2023-02-06T08:16:44.688Z,0.59
2023-02-06T08:19:46.350Z,0.60
2023-02-06T08:22:48.192Z,0.70
2023-02-06T08:25:49.899Z,0.75
2023-02-06T08:28:52.306Z,0.84
2023-02-06T08:31:54.344Z,0.98
2023-02-06T08:34:56.132Z,1.06
2023-02-06T08:38:00.832Z,1.24
2023-02-06T08:41:03.189Z,1.42
2023-02-06T08:44:14.804Z,1.45
2023-02-06T08:47:16.509Z,1.44
2023-02-06T08:50:18.275Z,1.54
2023-02-06T08:53:20.309Z,1.63
2023-02-06T08:56:22.268Z,1.59
2023-02-06T08:59:24.608Z,1.77
2023-02-06T09:02:26.436Z,1.84
2023-02-06T09:05:28.524Z,1.83
2023-02-06T09:08:31.014Z,1.93
2023-02-06T09:11:33.585Z,1.96
2023-02-06T09:14:35.400Z,1.84
2023-02-06T09:17:37.179Z,1.82
2023-02-06T09:20:38.912Z,1.85
2023-02-06T09:23:49.818Z,2.05
2023-02-06T09:26:59.792Z,2.27
2023-02-06T09:30:02.709Z,2.52
2023-02-06T09:33:04.356Z,2.74
2023-02-06T09:36:12.881Z,2.88
2023-02-06T09:39:14.721Z,2.97
2023-02-06T09:42:26.202Z,3.03
2023-02-06T09:45:29.508Z,2.84
2023-02-06T09:48:34.884Z,2.76
2023-02-06T09:51:57.210Z,2.72
2023-02-06T09:55:18.079Z,2.73
2023-02-06T09:58:26.972Z,2.86
2023-02-06T10:01:58.015Z,3.00
2023-02-06T10:05:05.891Z,3.08
2023-02-06T10:08:34.288Z,3.30
2023-02-06T10:12:07.601Z,3.41
2023-02-06T10:15:17.285Z,3.44
2023-02-06T10:18:30.822Z,3.57
2023-02-06T10:21:47.989Z,3.62
2023-02-06T10:25:11.322Z,3.51
2023-02-06T10:28:26.163Z,3.40
2023-02-06T10:31:52.652Z,3.37
2023-02-06T10:35:20.352Z,3.40
2023-02-06T10:38:36.176Z,3.54
2023-02-06T10:41:58.414Z,3.51
2023-02-06T10:45:19.686Z,3.39
2023-02-06T10:48:38.333Z,3.56
2023-02-06T10:51:44.348Z,3.53
2023-02-06T10:54:56.102Z,3.49
2023-02-06T10:58:16.228Z,3.55
2023-02-06T11:01:26.089Z,3.58
2023-02-06T11:04:43.931Z,3.59
2023-02-06T11:07:50.958Z,3.58
2023-02-06T11:10:52.795Z,3.52
2023-02-06T11:14:00.188Z,3.35
2023-02-06T11:17:02.666Z,3.28
2023-02-06T11:20:26.660Z,3.40
2023-02-06T11:23:31.188Z,3.55
2023-02-06T11:26:33.014Z,3.65
2023-02-06T11:29:43.693Z,3.69
2023-02-06T11:33:02.538Z,3.80
2023-02-06T11:36:07.665Z,3.77
2023-02-06T11:39:35.654Z,3.80
2023-02-06T11:42:38.058Z,3.95
2023-02-06T11:45:41.134Z,3.88
2023-02-06T11:48:44.499Z,3.81
2023-02-06T11:51:59.751Z,3.78
2023-02-06T11:55:02.795Z,3.85
2023-02-06T11:58:13.984Z,4.14
2023-02-06T12:01:21.397Z,4.27
2023-02-06T12:04:31.777Z,4.32
2023-02-06T12:07:43.194Z,4.18
2023-02-06T12:11:04.243Z,4.21
2023-02-06T12:14:22.183Z,4.19
2023-02-06T12:17:35.587Z,4.06
2023-02-06T12:20:54.542Z,4.08
2023-02-06T12:24:11.190Z,3.88
2023-02-06T12:27:21.095Z,4.01
2023-02-06T12:30:31.916Z,4.10
2023-02-06T12:33:48.441Z,3.96
2023-02-06T12:37:14.089Z,4.11
2023-02-06T12:40:38.393Z,3.92
2023-02-06T12:43:44.602Z,3.78
2023-02-06T12:46:52.101Z,3.73
2023-02-06T12:50:22.957Z,3.64
2023-02-06T12:53:57.227Z,3.55
2023-02-06T12:57:29.208Z,3.72
2023-02-06T13:00:48.993Z,3.82
2023-02-06T13:04:11.129Z,3.79
2023-02-06T13:07:16.293Z,3.77
2023-02-06T13:10:25.555Z,3.55
2023-02-06T13:13:31.061Z,3.43
2023-02-06T13:16:49.212Z,3.45
2023-02-06T13:20:05.013Z,3.61
2023-02-06T13:23:12.804Z,3.89
2023-02-06T13:26:17.420Z,4.09
2023-02-06T13:29:28.248Z,3.98
2023-02-06T13:32:31.939Z,3.59
2023-02-06T13:35:33.650Z,3.11
2023-02-06T13:38:35.305Z,2.80
2023-02-06T13:41:37.596Z,2.67
2023-02-06T13:44:40.880Z,2.84
2023-02-06T13:48:13.217Z,3.00
2023-02-06T13:51:33.789Z,3.08
2023-02-06T13:55:34.918Z,2.91
2023-02-06T13:58:41.257Z,2.76
2023-02-06T14:01:44.019Z,2.70
2023-02-06T14:04:49.683Z,2.76
2023-02-06T14:07:57.202Z,2.84
2023-02-06T14:11:41.725Z,3.11
2023-02-06T14:14:58.938Z,3.25
2023-02-06T14:18:16.114Z,3.54
2023-02-06T14:21:47.388Z,3.80
2023-02-06T14:25:11.323Z,3.93
2023-02-06T14:28:22.587Z,4.13
2023-02-06T14:31:36.476Z,4.28
2023-02-06T14:35:06.137Z,4.29
2023-02-06T14:38:45.498Z,4.45
2023-02-06T14:41:47.524Z,4.49
2023-02-06T14:44:57.312Z,4.24
2023-02-06T14:48:02.797Z,3.99
2023-02-06T14:51:06.014Z,3.69
2023-02-06T14:54:29.473Z,3.34
2023-02-06T14:57:32.286Z,3.05
2023-02-06T15:00:34.164Z,2.75
2023-02-06T15:03:36.980Z,2.48
2023-02-06T15:06:41.963Z,2.28
2023-02-06T15:09:46.673Z,2.19
2023-02-06T15:12:55.018Z,2.07
2023-02-06T15:15:57.579Z,2.00
2023-02-06T15:19:25.206Z,1.92
2023-02-06T15:22:30.037Z,1.84
2023-02-06T15:25:40.548Z,1.76
2023-02-06T15:28:44.081Z,1.65
2023-02-06T15:31:51.252Z,1.61
2023-02-06T15:34:53.422Z,1.63
2023-02-06T15:37:57.850Z,1.55
2023-02-06T15:41:07.319Z,1.36
2023-02-06T15:44:12.188Z,1.18
2023-02-06T15:47:16.774Z,1.05
2023-02-06T15:50:20.926Z,0.93
2023-02-06T15:53:40.169Z,0.77
2023-02-06T15:56:43.284Z,0.63
2023-02-06T15:59:45.642Z,0.54
2023-02-06T16:02:47.536Z,0.43
2023-02-06T16:05:50.965Z,0.32
2023-02-06T16:08:56.408Z,0.22
2023-02-06T16:11:58.485Z,0.10
2023-02-06T16:15:03.126Z,-0.01
2023-02-06T16:18:30.803Z,-0.13
2023-02-06T16:21:41.148Z,-0.24
2023-02-06T16:24:43.747Z,-0.34
2023-02-06T16:27:46.495Z,-0.38
2023-02-06T16:31:05.545Z,-0.46
2023-02-06T16:34:40.647Z,-0.61
2023-02-06T16:37:42.357Z,-0.67
2023-02-06T16:40:44.067Z,-0.73
2023-02-06T16:43:45.762Z,-0.80
2023-02-06T16:46:48.111Z,-0.85
2023-02-06T16:49:51.159Z,-0.89
2023-02-06T16:52:55.888Z,-0.95
2023-02-06T16:55:58.171Z,-1.01
2023-02-06T16:59:00.259Z,-1.11
2023-02-06T17:02:02.115Z,-1.14
2023-02-06T17:05:05.456Z,-1.17
2023-02-06T17:08:24.759Z,-1.18
2023-02-06T17:11:28.199Z,-1.22
2023-02-06T17:14:29.835Z,-1.24
2023-02-06T17:17:31.722Z,-1.25
2023-02-06T17:20:39.498Z,-1.29
2023-02-06T17:23:42.838Z,-1.32
2023-02-06T17:26:44.537Z,-1.34
2023-02-06T17:29:47.609Z,-1.36
2023-02-06T17:32:50.096Z,-1.37
2023-02-06T17:35:52.295Z,-1.39
2023-02-06T17:38:54.085Z,-1.42
2023-02-06T17:41:55.959Z,-1.45
2023-02-06T17:44:57.573Z,-1.46
2023-02-06T17:47:59.778Z,-1.44
2023-02-06T17:51:02.147Z,-1.39
2023-02-06T17:54:06.488Z,-1.39
2023-02-06T17:57:08.586Z,-1.38
2023-02-06T18:00:14.791Z,-1.40
2023-02-06T18:03:18.416Z,-1.29
2023-02-06T18:06:20.790Z,-1.11
2023-02-06T18:09:22.428Z,-1.00
2023-02-06T18:12:24.731Z,-0.93
2023-02-06T18:15:26.525Z,-0.87
2023-02-06T18:18:28.330Z,-0.82
2023-02-06T18:21:31.493Z,-0.86
2023-02-06T18:24:33.276Z,-0.88
2023-02-06T18:27:36.952Z,-0.82
2023-02-06T18:30:38.901Z,-0.79
2023-02-06T18:33:41.174Z,-0.81
2023-02-06T18:36:42.938Z,-0.90
2023-02-06T18:39:44.748Z,-1.00
2023-02-06T18:42:55.527Z,-1.12
2023-02-06T18:45:59.010Z,-1.16
2023-02-06T18:49:00.976Z,-1.21
2023-02-06T18:52:04.279Z,-1.23
2023-02-06T18:55:08.093Z,-1.16
2023-02-06T18:58:10.817Z,-1.00
2023-02-06T19:01:21.137Z,-0.90
2023-02-06T19:04:22.903Z,-0.81
2023-02-06T19:07:25.542Z,-0.87
2023-02-06T19:10:27.284Z,-0.94
2023-02-06T19:13:29.034Z,-0.97
2023-02-06T19:16:32.968Z,-1.14
2023-02-06T19:19:34.622Z,-1.25
2023-02-06T19:22:38.765Z,-1.33
2023-02-06T19:25:41.158Z,-1.45
2023-02-06T19:28:43.701Z,-1.53
2023-02-06T19:31:45.379Z,-1.58
2023-02-06T19:34:47.220Z,-1.62
2023-02-06T19:37:51.645Z,-1.68
2023-02-06T19:40:54.292Z,-1.75
2023-02-06T19:44:02.192Z,-1.74
2023-02-06T19:47:04.604Z,-1.76
2023-02-06T19:50:07.843Z,-1.79
2023-02-06T19:53:09.884Z,-1.80
2023-02-06T19:56:14.064Z,-1.86
2023-02-06T19:59:24.991Z,-1.84
2023-02-06T20:02:26.612Z,-1.88
2023-02-06T20:05:28.402Z,-1.91
2023-02-06T20:08:30.528Z,-1.94
2023-02-06T20:11:33.643Z,-1.96
2023-02-06T20:14:35.434Z,-1.97
2023-02-06T20:17:37.099Z,-1.99
2023-02-06T20:20:39.404Z,-1.99
2023-02-06T20:23:41.791Z,-2.01
2023-02-06T20:26:43.528Z,-2.05
2023-02-06T20:29:49.705Z,-2.06
2023-02-06T20:32:51.873Z,-2.07
2023-02-06T20:35:53.587Z,-2.08
2023-02-06T20:38:58.605Z,-2.12
2023-02-06T20:42:02.832Z,-2.12
2023-02-06T20:45:04.599Z,-2.11
2023-02-06T20:48:06.218Z,-2.20
2023-02-06T20:51:07.984Z,-2.24
2023-02-06T20:54:11.579Z,-2.28
2023-02-06T20:57:15.487Z,-2.30
2023-02-06T21:00:20.550Z,-2.27
2023-02-06T21:03:23.212Z,-2.32
2023-02-06T21:06:25.815Z,-2.35
2023-02-06T21:09:28.056Z,-2.37
2023-02-06T21:12:29.652Z,-2.41
2023-02-06T21:15:31.264Z,-2.41
2023-02-06T21:18:33.677Z,-2.43
2023-02-06T21:21:37.298Z,-2.44
2023-02-06T21:24:39.014Z,-2.40
2023-02-06T21:27:40.643Z,-2.35
2023-02-06T21:30:42.325Z,-2.36
2023-02-06T21:33:46.401Z,-2.38
2023-02-06T21:36:49.469Z,-2.39
2023-02-06T21:39:51.182Z,-2.35
2023-02-06T21:42:52.805Z,-2.38
2023-02-06T21:45:56.956Z,-2.41
2023-02-06T21:48:59.462Z,-2.37
2023-02-06T21:52:02.126Z,-2.36
2023-02-06T21:55:07.437Z,-2.34
2023-02-06T21:58:09.984Z,-2.35
2023-02-06T22:01:16.902Z,-2.36
2023-02-06T22:04:21.657Z,-2.34
2023-02-06T22:07:23.306Z,-2.37
2023-02-06T22:10:25.180Z,-2.40
2023-02-06T22:13:29.530Z,-2.45
2023-02-06T22:16:32.433Z,-2.43
2023-02-06T22:19:35.097Z,-2.51
2023-02-06T22:22:38.611Z,-2.52
2023-02-06T22:25:47.698Z,-2.54
2023-02-06T22:28:49.611Z,-2.57
2023-02-06T22:31:51.464Z,-2.58
2023-02-06T22:34:53.975Z,-2.56
2023-02-06T22:37:56.416Z,-2.58
2023-02-06T22:41:00.154Z,-2.64
2023-02-06T22:44:02.079Z,-2.61
2023-02-06T22:47:04.113Z,-2.60
2023-02-06T22:50:06.076Z,-2.61
2023-02-06T22:53:29.530Z,-2.61
2023-02-06T22:56:35.937Z,-2.59
2023-02-06T22:59:37.908Z,-2.57
2023-02-06T23:02:39.747Z,-2.57
2023-02-06T23:05:41.581Z,-2.59
2023-02-06T23:08:43.836Z,-2.59
2023-02-06T23:11:45.569Z,-2.58
2023-02-06T23:14:47.347Z,-2.57
2023-02-06T23:17:50.120Z,-2.62
2023-02-06T23:21:03.779Z,-2.64
2023-02-06T23:24:07.602Z,-2.67
2023-02-06T23:27:09.381Z,-2.68
2023-02-06T23:30:11.983Z,-2.71
2023-02-06T23:33:14.513Z,-2.73
2023-02-06T23:36:18.770Z,-2.75
2023-02-06T23:39:21.182Z,-2.77
2023-02-06T23:42:23.080Z,-2.79
2023-02-06T23:45:24.921Z,-2.83
2023-02-06T23:48:26.550Z,-2.84
2023-02-06T23:51:31.703Z,-2.87
2023-02-06T23:54:33.352Z,-2.83
2023-02-06T23:57:36.532Z,-2.89
